createdAt,value
2022-10-30T00:05:11.217Z,7.29
2022-10-30T00:25:17.427Z,6.99
2022-10-30T00:45:23.101Z,7.03
2022-10-30T01:05:28.813Z,5.90
2022-10-30T01:25:34.577Z,5.55
2022-10-30T01:45:40.313Z,6.44
2022-10-30T02:05:46.511Z,6.19
2022-10-30T02:25:52.792Z,5.48
2022-10-30T02:45:58.449Z,6.57
2022-10-30T03:06:04.244Z,6.83
2022-10-30T03:26:10.003Z,6.25
2022-10-30T03:46:16.250Z,5.94
2022-10-30T04:06:22.479Z,6.23
2022-10-30T04:26:28.218Z,6.17
2022-10-30T04:46:34.979Z,6.39
2022-10-30T05:06:40.724Z,6.08
2022-10-30T05:26:46.494Z,6.35
2022-10-30T05:46:52.291Z,6.32
2022-10-30T06:06:58.528Z,6.76
2022-10-30T06:27:04.293Z,7.26
2022-10-30T06:47:10.067Z,7.33
2022-10-30T07:07:15.889Z,7.35
2022-10-30T07:27:21.657Z,8.43
2022-10-30T07:47:27.870Z,7.82
2022-10-30T08:07:33.639Z,7.70
2022-10-30T08:27:39.421Z,7.28
2022-10-30T08:47:45.147Z,7.37
2022-10-30T09:07:50.904Z,7.35
2022-10-30T09:27:56.748Z,7.31
2022-10-30T09:48:02.527Z,7.44
2022-10-30T10:08:08.247Z,6.48
2022-10-30T10:28:13.971Z,6.43
2022-10-30T10:48:19.747Z,5.79
2022-10-30T11:08:25.497Z,5.46
2022-10-30T11:28:31.223Z,4.54
2022-10-30T11:48:37.250Z,4.48
2022-10-30T12:08:43.221Z,4.36
2022-10-30T12:28:49.413Z,4.54
2022-10-30T12:48:55.153Z,4.17
2022-10-30T13:09:00.906Z,5.14
2022-10-30T13:29:06.701Z,3.89
2022-10-30T13:49:12.892Z,3.54
2022-10-30T14:09:19.114Z,3.77
2022-10-30T14:29:24.872Z,3.51
2022-10-30T14:49:30.611Z,3.44
2022-10-30T15:09:36.817Z,3.83
2022-10-30T15:29:43.035Z,3.78
2022-10-30T15:49:48.847Z,3.86
2022-10-30T16:09:55.173Z,4.36
2022-10-30T16:30:00.867Z,4.76
2022-10-30T16:50:06.592Z,4.62
2022-10-30T17:10:12.802Z,4.80
2022-10-30T17:30:18.552Z,4.61
2022-10-30T17:50:24.273Z,5.02
2022-10-30T18:10:29.994Z,4.32
2022-10-30T18:30:35.696Z,4.45
2022-10-30T18:50:41.903Z,4.58
2022-10-30T19:10:47.761Z,5.20
2022-10-30T19:30:53.437Z,4.60
2022-10-30T19:50:59.705Z,4.40
2022-10-30T20:11:05.538Z,7.61
2022-10-30T20:31:11.743Z,7.36
2022-10-30T20:51:17.523Z,6.68
2022-10-30T21:11:23.757Z,6.51
2022-10-30T21:31:29.950Z,5.86
2022-10-30T21:51:35.730Z,5.43
2022-10-30T22:11:41.465Z,5.95
2022-10-30T22:31:47.281Z,6.69
2022-10-30T22:51:53.455Z,5.66
2022-10-30T23:11:59.649Z,5.24
2022-10-30T23:32:05.367Z,5.22
2022-10-30T23:52:11.186Z,5.64
